Wichita Mid Continent Airport
KICT : now visible

Airfield :











YOU CAN JOIN US ON...

 
LOGIN :

Register | Disclaimer

   EN    FR    IT 

 









Legend :    VFR   Marginal VFR   IFR   Intensive IFR   Very Intensive IFR
Visi :
Ceiling :
>= 8 km
>= 3000ft
5 to 8 km
1000 to 3000 ft
1500m to 5 km
500 to 1000 ft
800 to 1500m
200 to 500 ft
< 800m
< 200 ft
Symbols :   Thunderstorms  Fog  Heavy snow  Heavy precipitations  Wind > 20 kt







- Airport Elevation : 1333 ft
- IATA code : ICT


KICT - Wichita Mid Continent

CURRENT METAR :
  • 252153Z 36008KT 10SM FEW120 BKN160 BKN200 20/11 A3018 RMK AO2 SLP209 ACC DSNT W-NW T02000111 $

EXPIRED METARs :
  • 252053Z 35011KT 10SM FEW120 BKN160 BKN200 21/11 A3018 RMK AO2 SLP212 ACC DSNT W-NW T02060111 58008 $
  • 251953Z 01014KT 10SM SCT120 BKN150 BKN200 19/11 A3019 RMK AO2 SLP216 T01940106 $

TAF KICT
Valid from the 25 at 18:00 until the 26 at 18:00 UTC


251720Z 2518/2618 36016G24KT P6SM BKN120
FM252300 35007KT P6SM BKN200
FM260500 35007KT P6SM SKC
KZKC FIR / North America



MET'MAP, your aeronautical weather chart ! - Copyright ORBIFLY December 2007 - Disclaimer

ORBIFLY MET'MAP TEAM :

Programming & Development : Alexandra Zaïnal
Concept & Development : Baudouin d'Aumeries
Co-Development & Prog : Marc-Olivier Méhu
Technical & hardware support : Manuel Goepfert

Contact : metmap@orbifly.com




SOURCES & CREDITS :

   NOAA       Earth
Advisory